sensor_id;sensor_type;location;lat;lon;timestamp;pressure;altitude;pressure_sealevel;temperature;humidity
59650;BME280;46162;57.568;25.814;2023-02-18T00:01:44;98349.94;;;-0.73;100.00
59650;BME280;46162;57.568;25.814;2023-02-18T00:04:13;98352.31;;;-0.70;100.00
59650;BME280;46162;57.568;25.814;2023-02-18T00:06:41;98338.38;;;-0.72;100.00
59650;BME280;46162;57.568;25.814;2023-02-18T00:09:10;98338.22;;;-0.80;100.00
59650;BME280;46162;57.568;25.814;2023-02-18T00:11:40;98327.78;;;-0.72;100.00
59650;BME280;46162;57.568;25.814;2023-02-18T00:14:12;98324.84;;;-0.78;100.00
59650;BME280;46162;57.568;25.814;2023-02-18T00:16:41;98321.78;;;-0.83;100.00
59650;BME280;46162;57.568;25.814;2023-02-18T00:19:12;98313.41;;;-0.79;100.00
59650;BME280;46162;57.568;25.814;2023-02-18T00:21:42;98307.81;;;-0.85;100.00
59650;BME280;46162;57.568;25.814;2023-02-18T00:24:12;98304.34;;;-0.86;100.00
59650;BME280;46162;57.568;25.814;2023-02-18T00:26:43;98295.41;;;-0.85;100.00
59650;BME280;46162;57.568;25.814;2023-02-18T00:29:12;98289.69;;;-0.90;100.00
59650;BME280;46162;57.568;25.814;2023-02-18T00:31:41;98292.91;;;-0.87;100.00
59650;BME280;46162;57.568;25.814;2023-02-18T00:34:10;98289.84;;;-0.82;100.00
59650;BME280;46162;57.568;25.814;2023-02-18T00:36:39;98288.59;;;-0.68;100.00
59650;BME280;46162;57.568;25.814;2023-02-18T00:39:10;98269.50;;;-0.72;100.00
59650;BME280;46162;57.568;25.814;2023-02-18T00:41:39;98272.16;;;-0.72;100.00
59650;BME280;46162;57.568;25.814;2023-02-18T00:44:10;98272.28;;;-0.83;100.00
59650;BME280;46162;57.568;25.814;2023-02-18T00:46:39;98271.44;;;-0.93;100.00
59650;BME280;46162;57.568;25.814;2023-02-18T00:49:08;98254.56;;;-0.92;100.00
59650;BME280;46162;57.568;25.814;2023-02-18T00:51:37;98249.53;;;-0.85;100.00
59650;BME280;46162;57.568;25.814;2023-02-18T00:54:06;98249.38;;;-0.65;100.00
59650;BME280;46162;57.568;25.814;2023-02-18T00:56:35;98234.91;;;-0.80;100.00
59650;BME280;46162;57.568;25.814;2023-02-18T00:59:04;98227.94;;;-0.81;100.00
59650;BME280;46162;57.568;25.814;2023-02-18T01:01:34;98227.38;;;-0.75;100.00
59650;BME280;46162;57.568;25.814;2023-02-18T01:04:03;98216.22;;;-0.69;100.00
59650;BME280;46162;57.568;25.814;2023-02-18T01:06:31;98217.16;;;-0.60;100.00
59650;BME280;46162;57.568;25.814;2023-02-18T01:09:01;98207.84;;;-0.74;100.00
59650;BME280;46162;57.568;25.814;2023-02-18T01:11:30;98206.03;;;-0.63;100.00
59650;BME280;46162;57.568;25.814;2023-02-18T01:13:59;98198.06;;;-0.63;100.00
59650;BME280;46162;57.568;25.814;2023-02-18T01:16:28;98192.78;;;-0.63;100.00
59650;BME280;46162;57.568;25.814;2023-02-18T01:18:59;98190.97;;;-0.63;100.00
59650;BME280;46162;57.568;25.814;2023-02-18T01:21:27;98178.41;;;-0.71;100.00
59650;BME280;46162;57.568;25.814;2023-02-18T01:23:56;98169.34;;;-0.68;100.00
59650;BME280;46162;57.568;25.814;2023-02-18T01:26:25;98167.22;;;-0.55;100.00
59650;BME280;46162;57.568;25.814;2023-02-18T01:28:53;98153.03;;;-0.63;100.00
59650;BME280;46162;57.568;25.814;2023-02-18T01:31:22;98158.03;;;-0.60;100.00
59650;BME280;46162;57.568;25.814;2023-02-18T01:33:51;98153.44;;;-0.68;100.00
59650;BME280;46162;57.568;25.814;2023-02-18T01:36:21;98138.78;;;-0.62;100.00
59650;BME280;46162;57.568;25.814;2023-02-18T01:38:49;98145.09;;;-0.63;100.00
59650;BME280;46162;57.568;25.814;2023-02-18T01:41:19;98135.00;;;-0.50;100.00
59650;BME280;46162;57.568;25.814;2023-02-18T01:43:48;98132.22;;;-0.58;100.00
59650;BME280;46162;57.568;25.814;2023-02-18T01:46:18;98124.97;;;-0.56;100.00
59650;BME280;46162;57.568;25.814;2023-02-18T01:48:50;98119.69;;;-0.56;100.00
59650;BME280;46162;57.568;25.814;2023-02-18T01:51:26;98118.38;;;-0.52;100.00
59650;BME280;46162;57.568;25.814;2023-02-18T01:53:59;98112.97;;;-0.60;100.00
59650;BME280;46162;57.568;25.814;2023-02-18T01:56:32;98099.28;;;-0.46;100.00
59650;BME280;46162;57.568;25.814;2023-02-18T01:59:04;98101.53;;;-0.51;100.00
59650;BME280;46162;57.568;25.814;2023-02-18T02:01:34;98098.44;;;-0.47;100.00
59650;BME280;46162;57.568;25.814;2023-02-18T02:04:03;98097.00;;;-0.41;100.00
59650;BME280;46162;57.568;25.814;2023-02-18T02:06:34;98097.75;;;-0.49;100.00
59650;BME280;46162;57.568;25.814;2023-02-18T02:09:04;98090.31;;;-0.45;100.00
59650;BME280;46162;57.568;25.814;2023-02-18T02:14:44;98063.09;;;-0.37;100.00
59650;BME280;46162;57.568;25.814;2023-02-18T02:17:24;98061.94;;;-0.35;100.00
59650;BME280;46162;57.568;25.814;2023-02-18T02:20:22;98056.50;;;-0.33;100.00
59650;BME280;46162;57.568;25.814;2023-02-18T02:23:18;98055.13;;;-0.37;100.00
59650;BME280;46162;57.568;25.814;2023-02-18T02:29:11;98044.69;;;-0.39;100.00
59650;BME280;46162;57.568;25.814;2023-02-18T02:32:02;98036.47;;;-0.46;100.00
59650;BME280;46162;57.568;25.814;2023-02-18T02:34:39;98049.00;;;-0.38;100.00
59650;BME280;46162;57.568;25.814;2023-02-18T02:37:14;98034.53;;;-0.44;100.00
59650;BME280;46162;57.568;25.814;2023-02-18T02:39:52;98030.09;;;-0.53;100.00
59650;BME280;46162;57.568;25.814;2023-02-18T02:42:27;98026.50;;;-0.52;100.00
59650;BME280;46162;57.568;25.814;2023-02-18T02:45:05;98027.84;;;-0.48;100.00
59650;BME280;46162;57.568;25.814;2023-02-18T02:47:40;98032.00;;;-0.45;100.00
59650;BME280;46162;57.568;25.814;2023-02-18T02:50:16;98017.78;;;-0.44;100.00
59650;BME280;46162;57.568;25.814;2023-02-18T02:52:51;98009.84;;;-0.44;100.00
59650;BME280;46162;57.568;25.814;2023-02-18T02:55:21;98010.53;;;-0.42;100.00
59650;BME280;46162;57.568;25.814;2023-02-18T02:57:54;98011.06;;;-0.38;100.00
59650;BME280;46162;57.568;25.814;2023-02-18T03:00:35;98002.97;;;-0.37;100.00
59650;BME280;46162;57.568;25.814;2023-02-18T03:03:20;97997.38;;;-0.34;100.00
59650;BME280;46162;57.568;25.814;2023-02-18T03:06:07;97988.34;;;-0.41;100.00
59650;BME280;46162;57.568;25.814;2023-02-18T03:08:46;97998.25;;;-0.43;100.00
59650;BME280;46162;57.568;25.814;2023-02-18T03:11:19;97998.94;;;-0.41;100.00
59650;BME280;46162;57.568;25.814;2023-02-18T03:13:56;97986.16;;;-0.28;100.00
59650;BME280;46162;57.568;25.814;2023-02-18T03:16:41;97986.75;;;-0.34;100.00
59650;BME280;46162;57.568;25.814;2023-02-18T03:19:19;97977.38;;;-0.28;100.00
59650;BME280;46162;57.568;25.814;2023-02-18T03:21:59;97977.13;;;-0.35;100.00
59650;BME280;46162;57.568;25.814;2023-02-18T03:24:33;97969.72;;;-0.31;100.00
59650;BME280;46162;57.568;25.814;2023-02-18T03:27:06;97961.38;;;-0.18;100.00
59650;BME280;46162;57.568;25.814;2023-02-18T03:29:37;97955.72;;;-0.24;100.00
59650;BME280;46162;57.568;25.814;2023-02-18T03:32:07;97963.41;;;-0.30;100.00
59650;BME280;46162;57.568;25.814;2023-02-18T03:34:41;97957.97;;;-0.29;100.00
59650;BME280;46162;57.568;25.814;2023-02-18T03:37:14;97957.38;;;-0.23;100.00
59650;BME280;46162;57.568;25.814;2023-02-18T03:39:45;97956.22;;;-0.20;100.00
59650;BME280;46162;57.568;25.814;2023-02-18T03:42:16;97956.84;;;-0.26;100.00
59650;BME280;46162;57.568;25.814;2023-02-18T03:44:45;97955.09;;;-0.17;100.00
59650;BME280;46162;57.568;25.814;2023-02-18T03:47:13;97944.78;;;-0.20;100.00
59650;BME280;46162;57.568;25.814;2023-02-18T03:49:42;97957.28;;;-0.13;100.00
59650;BME280;46162;57.568;25.814;2023-02-18T03:52:10;97945.84;;;-0.13;100.00
59650;BME280;46162;57.568;25.814;2023-02-18T03:54:41;97948.50;;;-0.13;100.00
59650;BME280;46162;57.568;25.814;2023-02-18T03:57:09;97932.84;;;-0.25;100.00
59650;BME280;46162;57.568;25.814;2023-02-18T03:59:38;97942.53;;;-0.15;100.00
59650;BME280;46162;57.568;25.814;2023-02-18T04:02:06;97945.41;;;-0.27;100.00
59650;BME280;46162;57.568;25.814;2023-02-18T04:04:38;97938.34;;;-0.18;100.00
59650;BME280;46162;57.568;25.814;2023-02-18T04:07:09;97937.84;;;-0.22;100.00
59650;BME280;46162;57.568;25.814;2023-02-18T04:09:40;97940.25;;;-0.10;100.00
59650;BME280;46162;57.568;25.814;2023-02-18T04:12:09;97948.13;;;-0.18;100.00
59650;BME280;46162;57.568;25.814;2023-02-18T04:14:38;97933.22;;;-0.19;100.00
59650;BME280;46162;57.568;25.814;2023-02-18T04:17:07;97934.94;;;-0.10;100.00
59650;BME280;46162;57.568;25.814;2023-02-18T04:19:36;97935.88;;;-0.19;100.00
59650;BME280;46162;57.568;25.814;2023-02-18T04:22:05;97934.81;;;-0.09;100.00
59650;BME280;46162;57.568;25.814;2023-02-18T04:24:35;97931.53;;;-0.20;100.00
59650;BME280;46162;57.568;25.814;2023-02-18T04:27:07;97921.69;;;-0.10;100.00
59650;BME280;46162;57.568;25.814;2023-02-18T04:29:36;97919.03;;;-0.10;100.00
59650;BME280;46162;57.568;25.814;2023-02-18T04:32:05;97924.34;;;-0.10;100.00
59650;BME280;46162;57.568;25.814;2023-02-18T04:34:34;97919.03;;;-0.10;100.00
59650;BME280;46162;57.568;25.814;2023-02-18T04:37:03;97915.63;;;-0.03;100.00
59650;BME280;46162;57.568;25.814;2023-02-18T04:39:31;97904.50;;;-0.06;100.00
59650;BME280;46162;57.568;25.814;2023-02-18T04:42:00;97899.69;;;-0.03;100.00
59650;BME280;46162;57.568;25.814;2023-02-18T04:44:37;97907.19;;;0.02;100.00
59650;BME280;46162;57.568;25.814;2023-02-18T04:47:06;97900.25;;;0.01;100.00
59650;BME280;46162;57.568;25.814;2023-02-18T04:49:35;97901.91;;;0.02;100.00
59650;BME280;46162;57.568;25.814;2023-02-18T04:52:04;97901.97;;;-0.08;100.00
59650;BME280;46162;57.568;25.814;2023-02-18T04:54:32;97902.84;;;-0.07;100.00
59650;BME280;46162;57.568;25.814;2023-02-18T04:57:01;97904.78;;;0.09;100.00
59650;BME280;46162;57.568;25.814;2023-02-18T04:59:30;97903.31;;;0.14;100.00
59650;BME280;46162;57.568;25.814;2023-02-18T05:02:01;97894.31;;;0.07;100.00
59650;BME280;46162;57.568;25.814;2023-02-18T05:04:29;97889.50;;;0.03;100.00
59650;BME280;46162;57.568;25.814;2023-02-18T05:06:58;97888.63;;;0.02;100.00
59650;BME280;46162;57.568;25.814;2023-02-18T05:09:27;97883.03;;;-0.13;100.00
59650;BME280;46162;57.568;25.814;2023-02-18T05:11:56;97893.81;;;-0.14;100.00
59650;BME280;46162;57.568;25.814;2023-02-18T05:14:25;97873.66;;;-0.07;100.00
59650;BME280;46162;57.568;25.814;2023-02-18T05:16:54;97875.47;;;-0.08;100.00
59650;BME280;46162;57.568;25.814;2023-02-18T05:19:24;97876.59;;;-0.10;100.00
59650;BME280;46162;57.568;25.814;2023-02-18T05:21:53;97873.44;;;-0.14;100.00
59650;BME280;46162;57.568;25.814;2023-02-18T05:24:22;97869.00;;;-0.05;100.00
59650;BME280;46162;57.568;25.814;2023-02-18T05:26:51;97866.75;;;0.00;100.00
59650;BME280;46162;57.568;25.814;2023-02-18T05:29:20;97874.31;;;-0.05;100.00
59650;BME280;46162;57.568;25.814;2023-02-18T05:31:52;97865.06;;;-0.01;100.00
59650;BME280;46162;57.568;25.814;2023-02-18T05:34:21;97865.91;;;-0.01;100.00
59650;BME280;46162;57.568;25.814;2023-02-18T05:36:51;97859.16;;;0.05;100.00
59650;BME280;46162;57.568;25.814;2023-02-18T05:39:20;97863.34;;;0.08;100.00
59650;BME280;46162;57.568;25.814;2023-02-18T05:41:49;97857.94;;;-0.01;100.00
59650;BME280;46162;57.568;25.814;2023-02-18T05:44:18;97861.19;;;0.11;100.00
59650;BME280;46162;57.568;25.814;2023-02-18T05:47:00;97861.03;;;0.13;100.00
59650;BME280;46162;57.568;25.814;2023-02-18T05:49:30;97858.84;;;0.08;100.00
59650;BME280;46162;57.568;25.814;2023-02-18T05:52:04;97859.34;;;0.12;100.00
59650;BME280;46162;57.568;25.814;2023-02-18T05:54:36;97863.16;;;0.09;100.00
59650;BME280;46162;57.568;25.814;2023-02-18T05:57:04;97860.50;;;0.09;100.00
59650;BME280;46162;57.568;25.814;2023-02-18T05:59:33;97862.19;;;0.10;100.00
59650;BME280;46162;57.568;25.814;2023-02-18T06:02:04;97860.81;;;0.06;100.00
59650;BME280;46162;57.568;25.814;2023-02-18T06:04:33;97860.72;;;0.16;100.00
59650;BME280;46162;57.568;25.814;2023-02-18T06:07:03;97853.91;;;0.13;100.00
59650;BME280;46162;57.568;25.814;2023-02-18T06:09:32;97862.00;;;0.12;100.00
59650;BME280;46162;57.568;25.814;2023-02-18T06:12:01;97860.72;;;0.16;100.00
59650;BME280;46162;57.568;25.814;2023-02-18T06:14:30;97866.59;;;0.02;100.00
59650;BME280;46162;57.568;25.814;2023-02-18T06:16:58;97866.81;;;0.08;100.00
59650;BME280;46162;57.568;25.814;2023-02-18T06:19:27;97866.84;;;0.16;100.00
59650;BME280;46162;57.568;25.814;2023-02-18T06:21:56;97863.16;;;0.09;100.00
59650;BME280;46162;57.568;25.814;2023-02-18T06:24:26;97867.78;;;0.07;100.00
59650;BME280;46162;57.568;25.814;2023-02-18T06:26:54;97862.47;;;0.07;100.00
59650;BME280;46162;57.568;25.814;2023-02-18T06:29:23;97869.47;;;0.08;100.00
59650;BME280;46162;57.568;25.814;2023-02-18T06:31:52;97863.53;;;0.14;100.00
59650;BME280;46162;57.568;25.814;2023-02-18T06:34:21;97869.47;;;0.08;100.00
59650;BME280;46162;57.568;25.814;2023-02-18T06:36:50;97873.78;;;0.09;100.00
59650;BME280;46162;57.568;25.814;2023-02-18T06:39:19;97874.09;;;0.06;100.00
59650;BME280;46162;57.568;25.814;2023-02-18T06:41:49;97872.16;;;0.16;100.00
59650;BME280;46162;57.568;25.814;2023-02-18T06:44:17;97872.84;;;0.18;100.00
59650;BME280;46162;57.568;25.814;2023-02-18T06:46:46;97868.09;;;0.04;100.00
59650;BME280;46162;57.568;25.814;2023-02-18T06:49:15;97872.34;;;0.15;100.00
59650;BME280;46162;57.568;25.814;2023-02-18T06:51:44;97868.16;;;0.12;100.00
59650;BME280;46162;57.568;25.814;2023-02-18T06:54:16;97875.72;;;0.07;100.00
59650;BME280;46162;57.568;25.814;2023-02-18T06:56:49;97880.38;;;0.05;100.00
59650;BME280;46162;57.568;25.814;2023-02-18T06:59:18;97874.13;;;0.14;100.00
59650;BME280;46162;57.568;25.814;2023-02-18T07:01:46;97871.78;;;0.11;100.00
59650;BME280;46162;57.568;25.814;2023-02-18T07:04:15;97872.06;;;0.00;100.00
59650;BME280;46162;57.568;25.814;2023-02-18T07:06:43;97871.44;;;0.06;100.00
59650;BME280;46162;57.568;25.814;2023-02-18T07:09:12;97869.41;;;0.00;100.00
59650;BME280;46162;57.568;25.814;2023-02-18T07:11:40;97872.06;;;0.00;100.00
59650;BME280;46162;57.568;25.814;2023-02-18T07:14:10;97875.22;;;0.04;100.00
59650;BME280;46162;57.568;25.814;2023-02-18T07:16:39;97873.09;;;0.07;100.00
59650;BME280;46162;57.568;25.814;2023-02-18T07:19:08;97875.22;;;0.04;100.00
59650;BME280;46162;57.568;25.814;2023-02-18T07:21:36;97866.44;;;0.03;100.00
59650;BME280;46162;57.568;25.814;2023-02-18T07:24:05;97872.22;;;-0.19;100.00
59650;BME280;46162;57.568;25.814;2023-02-18T07:26:34;97866.00;;;-0.10;100.00
59650;BME280;46162;57.568;25.814;2023-02-18T07:29:03;97870.63;;;-0.12;100.00
59650;BME280;46162;57.568;25.814;2023-02-18T07:31:33;97877.81;;;-0.23;100.00
59650;BME280;46162;57.568;25.814;2023-02-18T07:34:01;97864.50;;;-0.31;100.00
59650;BME280;46162;57.568;25.814;2023-02-18T07:36:30;97863.03;;;-0.25;100.00
59650;BME280;46162;57.568;25.814;2023-02-18T07:38:58;97863.22;;;-0.27;100.00
59650;BME280;46162;57.568;25.814;2023-02-18T07:41:27;97867.09;;;-0.39;100.00
59650;BME280;46162;57.568;25.814;2023-02-18T07:43:55;97864.56;;;-0.40;100.00
59650;BME280;46162;57.568;25.814;2023-02-18T07:46:24;97868.16;;;-0.32;100.00
59650;BME280;46162;57.568;25.814;2023-02-18T07:48:55;97862.91;;;-0.41;100.00
59650;BME280;46162;57.568;25.814;2023-02-18T07:51:24;97855.72;;;-0.49;100.00
59650;BME280;46162;57.568;25.814;2023-02-18T07:53:52;97856.56;;;-0.49;100.00
59650;BME280;46162;57.568;25.814;2023-02-18T07:56:21;97854.22;;;-0.52;100.00
59650;BME280;46162;57.568;25.814;2023-02-18T07:58:49;97850.03;;;-0.36;100.00
59650;BME280;46162;57.568;25.814;2023-02-18T08:01:18;97857.16;;;-0.37;100.00
59650;BME280;46162;57.568;25.814;2023-02-18T08:03:49;97857.75;;;-0.43;100.00
59650;BME280;46162;57.568;25.814;2023-02-18T08:06:24;97856.00;;;-0.52;100.00
59650;BME280;46162;57.568;25.814;2023-02-18T08:08:56;97856.38;;;-0.47;100.00
59650;BME280;46162;57.568;25.814;2023-02-18T08:11:32;97851.94;;;-0.29;100.00
59650;BME280;46162;57.568;25.814;2023-02-18T08:14:01;97858.75;;;-0.44;100.00
59650;BME280;46162;57.568;25.814;2023-02-18T08:16:33;97857.22;;;-0.29;100.00
59650;BME280;46162;57.568;25.814;2023-02-18T08:19:02;97854.72;;;-0.30;100.00
59650;BME280;46162;57.568;25.814;2023-02-18T08:21:32;97857.53;;;-0.32;100.00
59650;BME280;46162;57.568;25.814;2023-02-18T08:24:01;97857.00;;;-0.35;100.00
59650;BME280;46162;57.568;25.814;2023-02-18T08:26:30;97847.59;;;-0.30;100.00
59650;BME280;46162;57.568;25.814;2023-02-18T08:28:58;97858.81;;;-0.18;100.00
59650;BME280;46162;57.568;25.814;2023-02-18T08:31:28;97861.91;;;-0.23;100.00
59650;BME280;46162;57.568;25.814;2023-02-18T08:33:58;97854.59;;;-0.29;100.00
59650;BME280;46162;57.568;25.814;2023-02-18T08:36:27;97863.03;;;-0.25;100.00
59650;BME280;46162;57.568;25.814;2023-02-18T08:38:58;97856.91;;;-0.26;100.00
59650;BME280;46162;57.568;25.814;2023-02-18T08:41:27;97855.00;;;-0.15;100.00
59650;BME280;46162;57.568;25.814;2023-02-18T08:43:56;97866.06;;;-0.20;100.00
59650;BME280;46162;57.568;25.814;2023-02-18T08:46:24;97864.72;;;-0.06;100.00
59650;BME280;46162;57.568;25.814;2023-02-18T08:49:03;97862.19;;;-0.08;100.00
59650;BME280;46162;57.568;25.814;2023-02-18T08:51:32;97859.94;;;-0.20;100.00
59650;BME280;46162;57.568;25.814;2023-02-18T08:54:02;97858.44;;;-0.23;100.00
59650;BME280;46162;57.568;25.814;2023-02-18T08:56:31;97869.59;;;-0.19;100.00
59650;BME280;46162;57.568;25.814;2023-02-18T08:59:00;97871.00;;;-0.07;100.00
59650;BME280;46162;57.568;25.814;2023-02-18T09:01:28;97868.50;;;-0.09;100.00
59650;BME280;46162;57.568;25.814;2023-02-18T09:03:57;97862.38;;;-0.09;100.00
59650;BME280;46162;57.568;25.814;2023-02-18T09:06:26;97869.31;;;-0.08;100.00
59650;BME280;46162;57.568;25.814;2023-02-18T09:08:54;97864.25;;;-0.02;100.00
59650;BME280;46162;57.568;25.814;2023-02-18T09:11:24;97875.66;;;0.17;100.00
59650;BME280;46162;57.568;25.814;2023-02-18T09:13:53;97873.84;;;0.17;100.00
59650;BME280;46162;57.568;25.814;2023-02-18T09:16:21;97874.78;;;0.08;100.00
59650;BME280;46162;57.568;25.814;2023-02-18T09:18:52;97867.78;;;0.07;100.00
59650;BME280;46162;57.568;25.814;2023-02-18T09:21:21;97869.16;;;0.11;100.00
59650;BME280;46162;57.568;25.814;2023-02-18T09:23:50;97872.16;;;0.16;100.00
59650;BME280;46162;57.568;25.814;2023-02-18T09:26:20;97870.34;;;0.17;100.00
59650;BME280;46162;57.568;25.814;2023-02-18T09:28:52;97864.66;;;0.12;100.00
59650;BME280;46162;57.568;25.814;2023-02-18T09:31:23;97865.84;;;0.35;100.00
59650;BME280;46162;57.568;25.814;2023-02-18T09:33:57;97874.97;;;0.41;100.00
59650;BME280;46162;57.568;25.814;2023-02-18T09:36:26;97872.06;;;0.52;100.00
59650;BME280;46162;57.568;25.814;2023-02-18T09:38:55;97870.03;;;0.46;100.00
59650;BME280;46162;57.568;25.814;2023-02-18T09:41:29;97865.41;;;0.48;100.00
59650;BME280;46162;57.568;25.814;2023-02-18T09:44:04;97874.97;;;0.67;100.00
59650;BME280;46162;57.568;25.814;2023-02-18T09:46:39;97863.94;;;0.54;100.00
59650;BME280;46162;57.568;25.814;2023-02-18T09:49:18;97866.59;;;0.54;100.00
59650;BME280;46162;57.568;25.814;2023-02-18T09:51:47;97870.72;;;0.48;100.00
59650;BME280;46162;57.568;25.814;2023-02-18T09:54:17;97874.13;;;0.67;100.00
59650;BME280;46162;57.568;25.814;2023-02-18T09:56:48;97870.03;;;0.72;100.00
59650;BME280;46162;57.568;25.814;2023-02-18T09:59:24;97864.94;;;0.87;100.00
59650;BME280;46162;57.568;25.814;2023-02-18T10:01:53;97868.88;;;0.75;100.00
59650;BME280;46162;57.568;25.814;2023-02-18T10:04:26;97871.56;;;0.83;100.00
59650;BME280;46162;57.568;25.814;2023-02-18T10:06:57;97868.56;;;0.86;100.00
59650;BME280;46162;57.568;25.814;2023-02-18T10:09:29;97872.28;;;1.01;100.00
59650;BME280;46162;57.568;25.814;2023-02-18T10:12:07;97866.81;;;1.03;100.00
59650;BME280;46162;57.568;25.814;2023-02-18T10:14:42;97877.31;;;1.13;100.00
59650;BME280;46162;57.568;25.814;2023-02-18T10:17:13;97864.16;;;1.03;100.00
59650;BME280;46162;57.568;25.814;2023-02-18T10:19:43;97874.78;;;1.03;100.00
59650;BME280;46162;57.568;25.814;2023-02-18T10:22:15;97871.44;;;1.01;100.00
59650;BME280;46162;57.568;25.814;2023-02-18T10:24:48;97872.88;;;1.21;100.00
59650;BME280;46162;57.568;25.814;2023-02-18T10:27:23;97867.72;;;1.28;100.00
59650;BME280;46162;57.568;25.814;2023-02-18T10:29:55;97865.06;;;1.20;100.00
59650;BME280;46162;57.568;25.814;2023-02-18T10:32:33;97865.41;;;1.25;100.00
59650;BME280;46162;57.568;25.814;2023-02-18T10:35:14;97868.38;;;1.22;100.00
59650;BME280;46162;57.568;25.814;2023-02-18T10:37:53;97866.41;;;1.24;100.00
59650;BME280;46162;57.568;25.814;2023-02-18T10:40:31;97869.69;;;1.26;100.00
59650;BME280;46162;57.568;25.814;2023-02-18T10:43:10;97869.06;;;1.32;100.00
59650;BME280;46162;57.568;25.814;2023-02-18T10:45:45;97877.03;;;1.24;100.00
59650;BME280;46162;57.568;25.814;2023-02-18T10:48:25;97866.06;;;1.27;100.00
59650;BME280;46162;57.568;25.814;2023-02-18T10:50:59;97877.41;;;1.37;100.00
59650;BME280;46162;57.568;25.814;2023-02-18T10:53:32;97868.59;;;1.37;100.00
59650;BME280;46162;57.568;25.814;2023-02-18T10:56:02;97870.28;;;1.54;100.00
59650;BME280;46162;57.568;25.814;2023-02-18T10:58:34;97866.13;;;1.52;100.00
59650;BME280;46162;57.568;25.814;2023-02-18T11:01:11;97873.44;;;1.49;100.00
59650;BME280;46162;57.568;25.814;2023-02-18T11:03:42;97864.44;;;1.42;100.00
59650;BME280;46162;57.568;25.814;2023-02-18T11:06:18;97862.59;;;1.43;100.00
59650;BME280;46162;57.568;25.814;2023-02-18T11:08:48;97866.28;;;1.50;100.00
59650;BME280;46162;57.568;25.814;2023-02-18T11:11:22;97860.81;;;1.60;100.00
59650;BME280;46162;57.568;25.814;2023-02-18T11:13:54;97873.13;;;1.61;100.00
59650;BME280;46162;57.568;25.814;2023-02-18T11:16:36;97872.75;;;1.56;100.00
59650;BME280;46162;57.568;25.814;2023-02-18T11:19:31;97869.47;;;1.54;100.00
59650;BME280;46162;57.568;25.814;2023-02-18T11:22:08;97868.25;;;1.48;100.00
59650;BME280;46162;57.568;25.814;2023-02-18T11:24:39;97865.47;;;1.49;100.00
59650;BME280;46162;57.568;25.814;2023-02-18T11:27:21;97868.78;;;1.60;100.00
59650;BME280;46162;57.568;25.814;2023-02-18T11:29:53;97874.44;;;1.65;100.00
59650;BME280;46162;57.568;25.814;2023-02-18T11:32:27;97869.47;;;1.70;100.00
59650;BME280;46162;57.568;25.814;2023-02-18T11:34:57;97867.97;;;1.67;100.00
59650;BME280;46162;57.568;25.814;2023-02-18T11:37:25;97865.16;;;1.69;100.00
59650;BME280;46162;57.568;25.814;2023-02-18T11:39:54;97859.50;;;1.72;100.00
59650;BME280;46162;57.568;25.814;2023-02-18T11:42:25;97862.31;;;1.70;100.00
59650;BME280;46162;57.568;25.814;2023-02-18T11:44:56;97865.81;;;1.71;100.00
59650;BME280;46162;57.568;25.814;2023-02-18T11:47:30;97863.16;;;1.71;100.00
59650;BME280;46162;57.568;25.814;2023-02-18T11:50:14;97864.16;;;1.62;100.00
59650;BME280;46162;57.568;25.814;2023-02-18T11:52:45;97872.78;;;1.72;100.00
59650;BME280;46162;57.568;25.814;2023-02-18T11:55:17;97873.81;;;1.71;100.00
59650;BME280;46162;57.568;25.814;2023-02-18T11:57:49;97875.78;;;1.69;100.00
59650;BME280;46162;57.568;25.814;2023-02-18T12:00:22;97867.97;;;1.67;100.00
59650;BME280;46162;57.568;25.814;2023-02-18T12:02:54;97866.13;;;1.68;100.00
59650;BME280;46162;57.568;25.814;2023-02-18T12:05:27;97864.44;;;1.50;100.00
59650;BME280;46162;57.568;25.814;2023-02-18T12:07:58;97869.91;;;1.41;100.00
59650;BME280;46162;57.568;25.814;2023-02-18T12:10:32;97868.06;;;1.33;100.00
59650;BME280;46162;57.568;25.814;2023-02-18T12:13:05;97874.03;;;1.27;100.00
59650;BME280;46162;57.568;25.814;2023-02-18T12:15:47;97872.75;;;1.31;100.00
59650;BME280;46162;57.568;25.814;2023-02-18T12:21:23;97866.22;;;1.25;100.00
59650;BME280;46162;57.568;25.814;2023-02-18T12:24:00;97875.00;;;1.18;100.00
59650;BME280;46162;57.568;25.814;2023-02-18T12:26:36;97866.34;;;1.16;100.00
59650;BME280;46162;57.568;25.814;2023-02-18T12:29:19;97866.19;;;1.09;100.00
59650;BME280;46162;57.568;25.814;2023-02-18T12:32:11;97870.63;;;1.00;100.00
59650;BME280;46162;57.568;25.814;2023-02-18T12:35:22;97867.13;;;0.92;100.00
59650;BME280;46162;57.568;25.814;2023-02-18T12:38:11;97873.88;;;0.86;100.00
59650;BME280;46162;57.568;25.814;2023-02-18T12:41:01;97881.00;;;0.77;100.00
59650;BME280;46162;57.568;25.814;2023-02-18T12:43:40;97887.25;;;0.68;100.00
59650;BME280;46162;57.568;25.814;2023-02-18T12:46:23;97878.44;;;0.59;100.00
59650;BME280;46162;57.568;25.814;2023-02-18T12:49:13;97888.00;;;0.52;100.00
59650;BME280;46162;57.568;25.814;2023-02-18T12:51:54;97892.09;;;0.47;100.00
59650;BME280;46162;57.568;25.814;2023-02-18T12:54:53;97895.38;;;0.40;100.00
59650;BME280;46162;57.568;25.814;2023-02-18T12:57:35;97900.34;;;0.35;100.00
59650;BME280;46162;57.568;25.814;2023-02-18T13:03:47;97904.00;;;0.16;100.00
59650;BME280;46162;57.568;25.814;2023-02-18T13:06:28;97905.28;;;0.12;100.00
59650;BME280;46162;57.568;25.814;2023-02-18T13:09:09;97902.44;;;0.06;100.00
59650;BME280;46162;57.568;25.814;2023-02-18T13:11:48;97916.97;;;0.02;100.00
59650;BME280;46162;57.568;25.814;2023-02-18T13:14:22;97915.78;;;-0.04;100.00
59650;BME280;46162;57.568;25.814;2023-02-18T13:16:54;97917.88;;;-0.08;100.00
59650;BME280;46162;57.568;25.814;2023-02-18T13:19:26;97926.03;;;-0.09;100.00
59650;BME280;46162;57.568;25.814;2023-02-18T13:22:00;97929.63;;;-0.10;100.00
59650;BME280;46162;57.568;25.814;2023-02-18T13:24:34;97929.25;;;-0.15;100.00